sensor_id;sensor_type;location;lat;lon;timestamp;pressure;altitude;pressure_sealevel;temperature;humidity
48089;BME280;33867;50.314;7.802;2023-06-19T00:01:44;99791.38;;;19.93;nan
48089;BME280;33867;50.314;7.802;2023-06-19T00:05:03;99784.94;;;19.74;nan
48089;BME280;33867;50.314;7.802;2023-06-19T00:08:22;99780.09;;;19.83;nan
48089;BME280;33867;50.314;7.802;2023-06-19T00:11:41;99788.66;;;19.86;nan
48089;BME280;33867;50.314;7.802;2023-06-19T00:15:00;99781.75;;;19.84;nan
48089;BME280;33867;50.314;7.802;2023-06-19T00:18:19;99783.50;;;19.65;nan
48089;BME280;33867;50.314;7.802;2023-06-19T00:21:38;99783.88;;;19.75;nan
48089;BME280;33867;50.314;7.802;2023-06-19T00:24:58;99784.78;;;19.69;nan
48089;BME280;33867;50.314;7.802;2023-06-19T00:28:17;99792.75;;;19.64;nan
48089;BME280;33867;50.314;7.802;2023-06-19T00:31:38;99784.78;;;19.63;nan
48089;BME280;33867;50.314;7.802;2023-06-19T00:34:57;99781.88;;;19.58;nan
48089;BME280;33867;50.314;7.802;2023-06-19T00:38:18;99788.59;;;19.48;nan
48089;BME280;33867;50.314;7.802;2023-06-19T00:41:37;99792.81;;;19.44;nan
48089;BME280;33867;50.314;7.802;2023-06-19T00:44:56;99795.34;;;19.39;nan
48089;BME280;33867;50.314;7.802;2023-06-19T00:48:16;99817.19;;;19.46;nan
48089;BME280;33867;50.314;7.802;2023-06-19T00:51:35;99811.34;;;19.16;nan
48089;BME280;33867;50.314;7.802;2023-06-19T00:54:54;99811.34;;;19.16;nan
48089;BME280;33867;50.314;7.802;2023-06-19T00:58:15;99826.84;;;19.28;nan
48089;BME280;33867;50.314;7.802;2023-06-19T01:01:34;99836.50;;;19.44;nan
48089;BME280;33867;50.314;7.802;2023-06-19T01:04:56;99833.22;;;18.96;nan
48089;BME280;33867;50.314;7.802;2023-06-19T01:11:57;99822.91;;;19.11;nan
48089;BME280;33867;50.314;7.802;2023-06-19T01:15:30;99822.69;;;19.26;nan
48089;BME280;33867;50.314;7.802;2023-06-19T01:18:50;99821.00;;;19.25;nan
48089;BME280;33867;50.314;7.802;2023-06-19T01:22:09;99830.66;;;19.34;nan
48089;BME280;33867;50.314;7.802;2023-06-19T01:25:28;99828.94;;;19.40;nan
48089;BME280;33867;50.314;7.802;2023-06-19T01:28:48;99824.97;;;19.36;nan
48089;BME280;33867;50.314;7.802;2023-06-19T01:32:13;99820.78;;;19.26;nan
48089;BME280;33867;50.314;7.802;2023-06-19T01:35:36;99822.69;;;19.33;nan
48089;BME280;33867;50.314;7.802;2023-06-19T01:38:57;99817.84;;;19.35;nan
48089;BME280;33867;50.314;7.802;2023-06-19T01:42:16;99823.06;;;19.36;nan
48089;BME280;33867;50.314;7.802;2023-06-19T01:45:36;99811.16;;;19.11;nan
48089;BME280;33867;50.314;7.802;2023-06-19T01:48:55;99822.47;;;19.21;nan
48089;BME280;33867;50.314;7.802;2023-06-19T01:52:14;99825.84;;;19.23;nan
48089;BME280;33867;50.314;7.802;2023-06-19T01:55:33;99835.88;;;19.29;nan
48089;BME280;33867;50.314;7.802;2023-06-19T01:58:52;99830.25;;;19.31;nan
48089;BME280;33867;50.314;7.802;2023-06-19T02:02:14;99831.25;;;19.29;nan
48089;BME280;33867;50.314;7.802;2023-06-19T02:05:33;99835.69;;;19.24;nan
48089;BME280;33867;50.314;7.802;2023-06-19T02:08:54;99838.66;;;19.22;nan
48089;BME280;33867;50.314;7.802;2023-06-19T02:12:13;99835.25;;;19.27;nan
48089;BME280;33867;50.314;7.802;2023-06-19T02:15:32;99841.34;;;19.29;nan
48089;BME280;33867;50.314;7.802;2023-06-19T02:18:51;99845.97;;;19.35;nan
48089;BME280;33867;50.314;7.802;2023-06-19T02:22:10;99857.31;;;19.32;nan
48089;BME280;33867;50.314;7.802;2023-06-19T02:25:28;99855.03;;;19.22;nan
48089;BME280;33867;50.314;7.802;2023-06-19T02:28:48;99857.09;;;19.27;nan
48089;BME280;33867;50.314;7.802;2023-06-19T02:32:07;99850.81;;;19.26;nan
48089;BME280;33867;50.314;7.802;2023-06-19T02:35:26;99852.06;;;19.17;nan
48089;BME280;33867;50.314;7.802;2023-06-19T02:38:49;99849.56;;;19.16;nan
48089;BME280;33867;50.314;7.802;2023-06-19T02:42:08;99860.47;;;19.16;nan
48089;BME280;33867;50.314;7.802;2023-06-19T02:45:27;99860.06;;;19.12;nan
48089;BME280;33867;50.314;7.802;2023-06-19T02:48:46;99869.94;;;19.07;nan
48089;BME280;33867;50.314;7.802;2023-06-19T02:52:05;99866.38;;;19.06;nan
48089;BME280;33867;50.314;7.802;2023-06-19T02:55:25;99873.06;;;19.04;nan
48089;BME280;33867;50.314;7.802;2023-06-19T02:58:44;99872.47;;;18.95;nan
48089;BME280;33867;50.314;7.802;2023-06-19T03:02:03;99885.03;;;18.89;nan
48089;BME280;33867;50.314;7.802;2023-06-19T03:05:21;99880.63;;;18.88;nan
48089;BME280;33867;50.314;7.802;2023-06-19T03:08:41;99880.44;;;18.83;nan
48089;BME280;33867;50.314;7.802;2023-06-19T03:12:00;99888.63;;;18.83;nan
48089;BME280;33867;50.314;7.802;2023-06-19T03:15:19;99907.47;;;18.78;nan
48089;BME280;33867;50.314;7.802;2023-06-19T03:18:45;99906.84;;;18.76;nan
48089;BME280;33867;50.314;7.802;2023-06-19T03:22:04;99899.91;;;18.67;nan
48089;BME280;33867;50.314;7.802;2023-06-19T03:25:24;99911.88;;;18.66;nan
48089;BME280;33867;50.314;7.802;2023-06-19T03:28:43;99920.88;;;18.60;nan
48089;BME280;33867;50.314;7.802;2023-06-19T03:32:03;99929.66;;;18.62;nan
48089;BME280;33867;50.314;7.802;2023-06-19T03:35:24;99935.13;;;18.62;nan
48089;BME280;33867;50.314;7.802;2023-06-19T03:38:44;99926.72;;;18.57;nan
48089;BME280;33867;50.314;7.802;2023-06-19T03:42:05;99933.22;;;18.56;nan
48089;BME280;33867;50.314;7.802;2023-06-19T03:45:24;99939.72;;;18.55;nan
48089;BME280;33867;50.314;7.802;2023-06-19T03:48:43;99943.47;;;18.54;nan
48089;BME280;33867;50.314;7.802;2023-06-19T03:52:03;99938.00;;;18.40;nan
48089;BME280;33867;50.314;7.802;2023-06-19T03:55:22;99929.19;;;18.38;nan
48089;BME280;33867;50.314;7.802;2023-06-19T03:58:42;99939.25;;;18.45;nan
48089;BME280;33867;50.314;7.802;2023-06-19T04:02:01;99936.31;;;18.39;nan
48089;BME280;33867;50.314;7.802;2023-06-19T04:05:20;99944.75;;;18.51;nan
48089;BME280;33867;50.314;7.802;2023-06-19T04:08:39;99956.91;;;18.49;nan
48089;BME280;33867;50.314;7.802;2023-06-19T04:11:58;99964.03;;;18.50;nan
48089;BME280;33867;50.314;7.802;2023-06-19T04:15:17;99966.75;;;18.56;nan
48089;BME280;33867;50.314;7.802;2023-06-19T04:18:36;99980.03;;;18.66;nan
48089;BME280;33867;50.314;7.802;2023-06-19T04:21:57;99985.53;;;18.73;nan
48089;BME280;33867;50.314;7.802;2023-06-19T04:25:16;99985.13;;;18.76;nan
48089;BME280;33867;50.314;7.802;2023-06-19T04:28:36;99987.66;;;18.84;nan
48089;BME280;33867;50.314;7.802;2023-06-19T04:31:55;99989.06;;;18.66;nan
48089;BME280;33867;50.314;7.802;2023-06-19T04:35:14;99969.88;;;18.47;nan
48089;BME280;33867;50.314;7.802;2023-06-19T04:38:34;99976.31;;;18.80;nan
48089;BME280;33867;50.314;7.802;2023-06-19T04:41:53;99967.53;;;19.05;nan
48089;BME280;33867;50.314;7.802;2023-06-19T04:45:11;99972.31;;;18.76;nan
48089;BME280;33867;50.314;7.802;2023-06-19T04:48:31;99960.78;;;18.94;nan
48089;BME280;33867;50.314;7.802;2023-06-19T04:51:50;99963.13;;;18.97;nan
48089;BME280;33867;50.314;7.802;2023-06-19T04:55:09;99955.38;;;19.34;nan
48089;BME280;33867;50.314;7.802;2023-06-19T04:58:29;99957.03;;;19.28;nan
48089;BME280;33867;50.314;7.802;2023-06-19T05:01:48;99962.53;;;19.54;nan
48089;BME280;33867;50.314;7.802;2023-06-19T05:05:07;99973.66;;;19.73;nan
48089;BME280;33867;50.314;7.802;2023-06-19T05:08:26;99974.25;;;19.88;nan
48089;BME280;33867;50.314;7.802;2023-06-19T05:11:45;99965.47;;;19.46;nan
48089;BME280;33867;50.314;7.802;2023-06-19T05:15:04;99972.53;;;20.00;nan
48089;BME280;33867;50.314;7.802;2023-06-19T05:18:24;99982.50;;;20.46;nan
48089;BME280;33867;50.314;7.802;2023-06-19T05:21:42;99983.94;;;20.62;nan
48089;BME280;33867;50.314;7.802;2023-06-19T05:25:02;99995.13;;;20.47;nan
48089;BME280;33867;50.314;7.802;2023-06-19T05:28:21;99984.47;;;20.77;nan
48089;BME280;33867;50.314;7.802;2023-06-19T05:31:40;99975.94;;;20.92;nan
48089;BME280;33867;50.314;7.802;2023-06-19T05:34:59;99978.78;;;20.79;nan
48089;BME280;33867;50.314;7.802;2023-06-19T05:38:18;99995.34;;;20.90;nan
48089;BME280;33867;50.314;7.802;2023-06-19T05:41:38;99987.41;;;21.45;nan
48089;BME280;33867;50.314;7.802;2023-06-19T05:44:57;99995.19;;;21.92;nan
48089;BME280;33867;50.314;7.802;2023-06-19T05:48:16;100000.81;;;22.70;nan
48089;BME280;33867;50.314;7.802;2023-06-19T05:51:35;100007.56;;;22.56;nan
48089;BME280;33867;50.314;7.802;2023-06-19T05:54:54;100011.94;;;22.27;nan
48089;BME280;33867;50.314;7.802;2023-06-19T05:58:13;100026.69;;;21.82;nan
48089;BME280;33867;50.314;7.802;2023-06-19T06:01:32;100025.13;;;21.93;nan
48089;BME280;33867;50.314;7.802;2023-06-19T06:04:51;100027.94;;;22.30;nan
48089;BME280;33867;50.314;7.802;2023-06-19T06:08:10;100029.91;;;21.98;nan
48089;BME280;33867;50.314;7.802;2023-06-19T06:11:29;100019.69;;;22.48;nan
48089;BME280;33867;50.314;7.802;2023-06-19T06:14:49;100026.78;;;22.19;nan
48089;BME280;33867;50.314;7.802;2023-06-19T06:18:08;100035.94;;;23.28;nan
48089;BME280;33867;50.314;7.802;2023-06-19T06:21:27;100030.72;;;22.78;nan
48089;BME280;33867;50.314;7.802;2023-06-19T06:24:46;100040.81;;;23.14;nan
48089;BME280;33867;50.314;7.802;2023-06-19T06:28:05;100038.06;;;22.66;nan
48089;BME280;33867;50.314;7.802;2023-06-19T06:31:24;100044.06;;;22.20;nan
48089;BME280;33867;50.314;7.802;2023-06-19T06:34:43;100037.84;;;22.31;nan
48089;BME280;33867;50.314;7.802;2023-06-19T06:38:02;100052.38;;;22.31;nan
48089;BME280;33867;50.314;7.802;2023-06-19T06:41:21;100050.13;;;22.03;nan
48089;BME280;33867;50.314;7.802;2023-06-19T06:44:40;100058.94;;;22.05;nan
48089;BME280;33867;50.314;7.802;2023-06-19T06:47:59;100052.75;;;21.92;nan
48089;BME280;33867;50.314;7.802;2023-06-19T06:51:19;100064.16;;;21.88;nan
48089;BME280;33867;50.314;7.802;2023-06-19T06:54:38;100053.97;;;21.96;nan
48089;BME280;33867;50.314;7.802;2023-06-19T06:57:57;100072.72;;;22.24;nan
48089;BME280;33867;50.314;7.802;2023-06-19T07:01:16;100067.53;;;22.34;nan
48089;BME280;33867;50.314;7.802;2023-06-19T07:04:35;100072.19;;;22.33;nan
48089;BME280;33867;50.314;7.802;2023-06-19T07:07:54;100079.34;;;22.16;nan
48089;BME280;33867;50.314;7.802;2023-06-19T07:11:13;100080.78;;;22.18;nan
48089;BME280;33867;50.314;7.802;2023-06-19T07:14:32;100080.66;;;22.32;nan
48089;BME280;33867;50.314;7.802;2023-06-19T07:17:52;100072.88;;;22.47;nan
48089;BME280;33867;50.314;7.802;2023-06-19T07:21:12;100078.28;;;22.72;nan
48089;BME280;33867;50.314;7.802;2023-06-19T07:24:32;100079.81;;;22.68;nan
48089;BME280;33867;50.314;7.802;2023-06-19T07:27:51;100085.91;;;22.70;nan
48089;BME280;33867;50.314;7.802;2023-06-19T07:31:11;100083.69;;;22.60;nan
48089;BME280;33867;50.314;7.802;2023-06-19T07:34:30;100085.31;;;22.68;nan
48089;BME280;33867;50.314;7.802;2023-06-19T07:37:49;100086.34;;;23.22;nan
48089;BME280;33867;50.314;7.802;2023-06-19T07:41:08;100089.78;;;23.47;nan
48089;BME280;33867;50.314;7.802;2023-06-19T07:44:28;100086.06;;;23.95;nan
48089;BME280;33867;50.314;7.802;2023-06-19T07:47:54;100077.34;;;24.21;nan
48089;BME280;33867;50.314;7.802;2023-06-19T07:51:13;100068.38;;;24.38;nan
48089;BME280;33867;50.314;7.802;2023-06-19T07:54:34;100075.34;;;24.92;nan
48089;BME280;33867;50.314;7.802;2023-06-19T07:57:53;100083.50;;;25.27;nan
48089;BME280;33867;50.314;7.802;2023-06-19T08:01:15;100091.72;;;25.39;nan
48089;BME280;33867;50.314;7.802;2023-06-19T08:04:34;100083.78;;;26.05;nan
48089;BME280;33867;50.314;7.802;2023-06-19T08:07:53;100084.63;;;26.05;nan
48089;BME280;33867;50.314;7.802;2023-06-19T08:11:12;100087.53;;;27.95;nan
48089;BME280;33867;50.314;7.802;2023-06-19T08:14:31;100087.88;;;28.94;nan
48089;BME280;33867;50.314;7.802;2023-06-19T08:17:53;100084.22;;;28.36;nan
48089;BME280;33867;50.314;7.802;2023-06-19T08:21:13;100094.91;;;28.22;nan
48089;BME280;33867;50.314;7.802;2023-06-19T08:24:34;100093.38;;;27.99;nan
48089;BME280;33867;50.314;7.802;2023-06-19T08:27:54;100093.72;;;27.49;nan
48089;BME280;33867;50.314;7.802;2023-06-19T08:31:14;100095.94;;;27.79;nan
48089;BME280;33867;50.314;7.802;2023-06-19T08:34:33;100078.97;;;28.34;nan
48089;BME280;33867;50.314;7.802;2023-06-19T08:37:52;100078.59;;;29.40;nan
48089;BME280;33867;50.314;7.802;2023-06-19T08:41:11;100076.44;;;30.24;nan
48089;BME280;33867;50.314;7.802;2023-06-19T08:44:30;100076.63;;;31.33;nan
48089;BME280;33867;50.314;7.802;2023-06-19T08:47:49;100077.66;;;31.86;nan
48089;BME280;33867;50.314;7.802;2023-06-19T08:51:09;100075.03;;;31.17;nan
48089;BME280;33867;50.314;7.802;2023-06-19T08:54:29;100081.22;;;30.98;nan
48089;BME280;33867;50.314;7.802;2023-06-19T08:57:49;100072.94;;;31.42;nan
48089;BME280;33867;50.314;7.802;2023-06-19T09:01:09;100072.31;;;31.01;nan
48089;BME280;33867;50.314;7.802;2023-06-19T09:04:28;100067.16;;;30.74;nan
48089;BME280;33867;50.314;7.802;2023-06-19T09:07:59;100075.91;;;31.95;nan
48089;BME280;33867;50.314;7.802;2023-06-19T09:11:21;100077.25;;;32.85;nan
48089;BME280;33867;50.314;7.802;2023-06-19T09:14:42;100079.69;;;33.10;nan
48089;BME280;33867;50.314;7.802;2023-06-19T09:18:07;100069.69;;;33.47;nan
48089;BME280;33867;50.314;7.802;2023-06-19T09:21:26;100063.94;;;33.76;nan
48089;BME280;33867;50.314;7.802;2023-06-19T09:24:47;100068.16;;;33.92;nan
48089;BME280;33867;50.314;7.802;2023-06-19T09:28:16;100066.34;;;33.07;nan
48089;BME280;33867;50.314;7.802;2023-06-19T09:31:36;100066.16;;;33.41;nan
48089;BME280;33867;50.314;7.802;2023-06-19T09:34:57;100058.66;;;32.22;nan
48089;BME280;33867;50.314;7.802;2023-06-19T09:38:21;100064.94;;;31.70;nan
48089;BME280;33867;50.314;7.802;2023-06-19T09:41:46;100061.75;;;32.50;nan
48089;BME280;33867;50.314;7.802;2023-06-19T09:45:08;100064.16;;;33.04;nan
48089;BME280;33867;50.314;7.802;2023-06-19T09:48:29;100063.03;;;33.62;nan
48089;BME280;33867;50.314;7.802;2023-06-19T09:51:49;100065.34;;;34.25;nan
48089;BME280;33867;50.314;7.802;2023-06-19T09:55:11;100068.94;;;34.99;nan
48089;BME280;33867;50.314;7.802;2023-06-19T09:58:34;100058.31;;;35.24;nan
48089;BME280;33867;50.314;7.802;2023-06-19T10:01:54;100053.69;;;35.55;nan
48089;BME280;33867;50.314;7.802;2023-06-19T10:05:13;100059.16;;;35.10;nan
48089;BME280;33867;50.314;7.802;2023-06-19T10:08:41;100055.25;;;34.84;nan
48089;BME280;33867;50.314;7.802;2023-06-19T10:12:12;100061.28;;;35.05;nan
48089;BME280;33867;50.314;7.802;2023-06-19T10:15:31;100063.50;;;35.30;nan
48089;BME280;33867;50.314;7.802;2023-06-19T10:18:50;100065.13;;;35.45;nan
48089;BME280;33867;50.314;7.802;2023-06-19T10:22:19;100049.97;;;34.96;nan
48089;BME280;33867;50.314;7.802;2023-06-19T10:25:40;100053.06;;;33.93;nan
48089;BME280;33867;50.314;7.802;2023-06-19T10:29:00;100059.41;;;34.59;nan
48089;BME280;33867;50.314;7.802;2023-06-19T10:32:20;100058.22;;;35.29;nan
48089;BME280;33867;50.314;7.802;2023-06-19T10:35:40;100051.91;;;35.59;nan
48089;BME280;33867;50.314;7.802;2023-06-19T10:39:00;100052.34;;;36.51;nan
48089;BME280;33867;50.314;7.802;2023-06-19T10:42:19;100046.72;;;35.75;nan
48089;BME280;33867;50.314;7.802;2023-06-19T10:45:39;100044.78;;;36.29;nan
48089;BME280;33867;50.314;7.802;2023-06-19T10:48:59;100044.94;;;36.64;nan
48089;BME280;33867;50.314;7.802;2023-06-19T10:52:20;100027.91;;;36.51;nan
48089;BME280;33867;50.314;7.802;2023-06-19T10:55:39;100028.88;;;36.38;nan
48089;BME280;33867;50.314;7.802;2023-06-19T10:59:04;100034.81;;;36.94;nan
48089;BME280;33867;50.314;7.802;2023-06-19T11:02:33;100029.44;;;37.58;nan
48089;BME280;33867;50.314;7.802;2023-06-19T11:05:52;100026.78;;;37.70;nan
48089;BME280;33867;50.314;7.802;2023-06-19T11:09:12;100021.84;;;37.32;nan
48089;BME280;33867;50.314;7.802;2023-06-19T11:12:32;100016.19;;;37.15;nan
48089;BME280;33867;50.314;7.802;2023-06-19T11:15:53;100014.09;;;37.55;nan
48089;BME280;33867;50.314;7.802;2023-06-19T11:19:20;100022.16;;;37.83;nan
48089;BME280;33867;50.314;7.802;2023-06-19T11:22:41;100020.16;;;37.83;nan
48089;BME280;33867;50.314;7.802;2023-06-19T11:26:03;100000.53;;;37.49;nan
48089;BME280;33867;50.314;7.802;2023-06-19T11:29:33;100009.44;;;37.68;nan
48089;BME280;33867;50.314;7.802;2023-06-19T11:32:52;100001.53;;;37.44;nan
48089;BME280;33867;50.314;7.802;2023-06-19T11:36:11;100000.69;;;37.61;nan
48089;BME280;33867;50.314;7.802;2023-06-19T11:39:31;99991.75;;;37.41;nan
48089;BME280;33867;50.314;7.802;2023-06-19T11:42:53;99993.06;;;37.53;nan
48089;BME280;33867;50.314;7.802;2023-06-19T11:46:12;99991.25;;;37.65;nan
48089;BME280;33867;50.314;7.802;2023-06-19T11:49:36;99988.28;;;37.62;nan
48089;BME280;33867;50.314;7.802;2023-06-19T11:52:54;99991.34;;;38.03;nan
48089;BME280;33867;50.314;7.802;2023-06-19T11:56:14;99983.78;;;37.87;nan
48089;BME280;33867;50.314;7.802;2023-06-19T11:59:33;99979.50;;;37.72;nan
48089;BME280;33867;50.314;7.802;2023-06-19T12:02:52;99968.28;;;35.97;nan
48089;BME280;33867;50.314;7.802;2023-06-19T12:06:12;99973.41;;;37.01;nan
48089;BME280;33867;50.314;7.802;2023-06-19T12:09:31;99973.72;;;37.68;nan
48089;BME280;33867;50.314;7.802;2023-06-19T12:12:50;99978.34;;;37.90;nan
48089;BME280;33867;50.314;7.802;2023-06-19T12:16:10;99981.06;;;38.08;nan
48089;BME280;33867;50.314;7.802;2023-06-19T12:19:29;99978.66;;;38.36;nan
48089;BME280;33867;50.314;7.802;2023-06-19T12:22:48;99975.09;;;38.18;nan
48089;BME280;33867;50.314;7.802;2023-06-19T12:26:07;99975.31;;;35.86;nan
48089;BME280;33867;50.314;7.802;2023-06-19T12:29:26;99977.06;;;36.36;nan
48089;BME280;33867;50.314;7.802;2023-06-19T12:32:45;99977.22;;;37.57;nan
48089;BME280;33867;50.314;7.802;2023-06-19T12:36:10;99971.69;;;37.95;nan
48089;BME280;33867;50.314;7.802;2023-06-19T12:39:29;99968.28;;;35.97;nan
48089;BME280;33867;50.314;7.802;2023-06-19T12:42:48;99974.72;;;36.86;nan
48089;BME280;33867;50.314;7.802;2023-06-19T12:46:08;99981.50;;;36.85;nan
48089;BME280;33867;50.314;7.802;2023-06-19T12:49:28;99983.81;;;37.17;nan
48089;BME280;33867;50.314;7.802;2023-06-19T12:52:47;99977.09;;;38.09;nan
48089;BME280;33867;50.314;7.802;2023-06-19T12:56:06;99965.53;;;38.48;nan
48089;BME280;33867;50.314;7.802;2023-06-19T12:59:25;99969.69;;;38.42;nan
48089;BME280;33867;50.314;7.802;2023-06-19T13:02:45;99967.91;;;38.38;nan
48089;BME280;33867;50.314;7.802;2023-06-19T13:06:05;99971.69;;;38.03;nan
48089;BME280;33867;50.314;7.802;2023-06-19T13:09:24;99965.34;;;37.42;nan
48089;BME280;33867;50.314;7.802;2023-06-19T13:12:43;99960.84;;;37.76;nan
48089;BME280;33867;50.314;7.802;2023-06-19T13:16:02;99956.59;;;37.18;nan
48089;BME280;33867;50.314;7.802;2023-06-19T13:19:21;99946.81;;;37.41;nan
48089;BME280;33867;50.314;7.802;2023-06-19T13:22:41;99957.88;;;37.81;nan
48089;BME280;33867;50.314;7.802;2023-06-19T13:26:00;99945.06;;;35.74;nan
48089;BME280;33867;50.314;7.802;2023-06-19T13:29:19;99942.25;;;36.37;nan
48089;BME280;33867;50.314;7.802;2023-06-19T13:32:38;99940.91;;;37.00;nan
48089;BME280;33867;50.314;7.802;2023-06-19T13:35:57;99935.41;;;36.20;nan
48089;BME280;33867;50.314;7.802;2023-06-19T13:39:16;99928.72;;;35.99;nan
48089;BME280;33867;50.314;7.802;2023-06-19T13:42:38;99935.88;;;35.83;nan
48089;BME280;33867;50.314;7.802;2023-06-19T13:45:57;99928.88;;;34.82;nan
48089;BME280;33867;50.314;7.802;2023-06-19T13:49:16;99927.44;;;36.05;nan
48089;BME280;33867;50.314;7.802;2023-06-19T13:52:35;99929.28;;;36.18;nan
48089;BME280;33867;50.314;7.802;2023-06-19T13:55:55;99928.56;;;36.44;nan
48089;BME280;33867;50.314;7.802;2023-06-19T13:59:14;99913.91;;;35.45;nan
48089;BME280;33867;50.314;7.802;2023-06-19T14:02:34;99914.13;;;36.19;nan
48089;BME280;33867;50.314;7.802;2023-06-19T14:05:53;99905.75;;;34.76;nan
48089;BME280;33867;50.314;7.802;2023-06-19T14:09:12;99910.66;;;35.52;nan
48089;BME280;33867;50.314;7.802;2023-06-19T14:12:31;99906.91;;;35.11;nan
48089;BME280;33867;50.314;7.802;2023-06-19T14:15:50;99904.41;;;34.38;nan
48089;BME280;33867;50.314;7.802;2023-06-19T14:19:11;99920.72;;;34.17;nan
48089;BME280;33867;50.314;7.802;2023-06-19T14:22:30;99921.88;;;34.16;nan
48089;BME280;33867;50.314;7.802;2023-06-19T14:25:49;99912.72;;;33.69;nan
48089;BME280;33867;50.314;7.802;2023-06-19T14:29:08;99919.28;;;33.46;nan
48089;BME280;33867;50.314;7.802;2023-06-19T14:32:27;99921.25;;;33.26;nan
48089;BME280;33867;50.314;7.802;2023-06-19T14:35:47;99926.19;;;33.15;nan
48089;BME280;33867;50.314;7.802;2023-06-19T14:39:06;99928.31;;;33.05;nan
48089;BME280;33867;50.314;7.802;2023-06-19T14:42:25;99937.34;;;32.97;nan
48089;BME280;33867;50.314;7.802;2023-06-19T14:45:44;99938.41;;;33.01;nan
48089;BME280;33867;50.314;7.802;2023-06-19T14:49:03;99943.19;;;33.14;nan
48089;BME280;33867;50.314;7.802;2023-06-19T14:52:22;99932.91;;;32.96;nan
48089;BME280;33867;50.314;7.802;2023-06-19T14:55:42;99934.84;;;33.14;nan
48089;BME280;33867;50.314;7.802;2023-06-19T14:59:04;99937.97;;;33.26;nan
48089;BME280;33867;50.314;7.802;2023-06-19T15:02:23;99937.88;;;32.99;nan
48089;BME280;33867;50.314;7.802;2023-06-19T15:05:42;99934.66;;;32.92;nan
48089;BME280;33867;50.314;7.802;2023-06-19T15:09:01;99941.63;;;32.70;nan
48089;BME280;33867;50.314;7.802;2023-06-19T15:12:21;99944.47;;;32.65;nan
48089;BME280;33867;50.314;7.802;2023-06-19T15:15:40;99939.75;;;32.42;nan
48089;BME280;33867;50.314;7.802;2023-06-19T15:19:02;99941.16;;;32.44;nan
48089;BME280;33867;50.314;7.802;2023-06-19T15:22:21;99944.63;;;32.31;nan
48089;BME280;33867;50.314;7.802;2023-06-19T15:25:41;99931.69;;;32.16;nan
48089;BME280;33867;50.314;7.802;2023-06-19T15:29:01;99933.47;;;32.07;nan
48089;BME280;33867;50.314;7.802;2023-06-19T15:32:20;99925.13;;;32.31;nan
48089;BME280;33867;50.314;7.802;2023-06-19T15:35:39;99927.03;;;32.54;nan
48089;BME280;33867;50.314;7.802;2023-06-19T15:38:59;99933.81;;;32.24;nan
48089;BME280;33867;50.314;7.802;2023-06-19T15:42:18;99916.63;;;31.93;nan
48089;BME280;33867;50.314;7.802;2023-06-19T15:45:37;99901.13;;;31.87;nan
48089;BME280;33867;50.314;7.802;2023-06-19T15:48:57;99900.53;;;31.90;nan
48089;BME280;33867;50.314;7.802;2023-06-19T15:52:16;99892.69;;;31.92;nan
48089;BME280;33867;50.314;7.802;2023-06-19T15:55:35;99895.91;;;32.05;nan
48089;BME280;33867;50.314;7.802;2023-06-19T15:58:55;99889.47;;;31.85;nan
48089;BME280;33867;50.314;7.802;2023-06-19T16:02:14;99897.25;;;31.54;nan
48089;BME280;33867;50.314;7.802;2023-06-19T16:05:34;99890.13;;;31.43;nan
48089;BME280;33867;50.314;7.802;2023-06-19T16:08:53;99888.28;;;31.62;nan
48089;BME280;33867;50.314;7.802;2023-06-19T16:12:15;99886.84;;;31.36;nan
48089;BME280;33867;50.314;7.802;2023-06-19T16:15:34;99891.25;;;31.42;nan
48089;BME280;33867;50.314;7.802;2023-06-19T16:18:53;99899.59;;;31.42;nan
48089;BME280;33867;50.314;7.802;2023-06-19T16:22:13;99889.06;;;31.39;nan
48089;BME280;33867;50.314;7.802;2023-06-19T16:25:32;99880.31;;;31.22;nan
48089;BME280;33867;50.314;7.802;2023-06-19T16:28:51;99882.50;;;31.25;nan
48089;BME280;33867;50.314;7.802;2023-06-19T16:32:10;99886.41;;;31.24;nan
48089;BME280;33867;50.314;7.802;2023-06-19T16:35:29;99890.38;;;31.12;nan
48089;BME280;33867;50.314;7.802;2023-06-19T16:38:49;99892.88;;;31.14;nan
48089;BME280;33867;50.314;7.802;2023-06-19T16:42:09;99884.56;;;31.09;nan
48089;BME280;33867;50.314;7.802;2023-06-19T16:45:28;99884.47;;;30.85;nan
48089;BME280;33867;50.314;7.802;2023-06-19T16:48:47;99887.25;;;30.85;nan
48089;BME280;33867;50.314;7.802;2023-06-19T16:52:06;99877.75;;;30.91;nan
48089;BME280;33867;50.314;7.802;2023-06-19T16:55:26;99876.13;;;30.85;nan
48089;BME280;33867;50.314;7.802;2023-06-19T16:58:46;99878.38;;;30.78;nan
48089;BME280;33867;50.314;7.802;2023-06-19T17:02:05;99875.69;;;30.63;nan
48089;BME280;33867;50.314;7.802;2023-06-19T17:05:24;99877.34;;;30.19;nan
48089;BME280;33867;50.314;7.802;2023-06-19T17:08:45;99870.72;;;29.95;nan
48089;BME280;33867;50.314;7.802;2023-06-19T17:12:04;99871.91;;;29.68;nan
48089;BME280;33867;50.314;7.802;2023-06-19T17:15:23;99879.16;;;29.39;nan
48089;BME280;33867;50.314;7.802;2023-06-19T17:18:42;99891.38;;;29.12;nan
48089;BME280;33867;50.314;7.802;2023-06-19T17:22:01;99897.75;;;28.93;nan
48089;BME280;33867;50.314;7.802;2023-06-19T17:25:21;99892.97;;;28.73;nan
48089;BME280;33867;50.314;7.802;2023-06-19T17:28:40;99897.41;;;28.69;nan
48089;BME280;33867;50.314;7.802;2023-06-19T17:31:59;99895.41;;;28.44;nan
48089;BME280;33867;50.314;7.802;2023-06-19T17:35:18;99904.47;;;28.29;nan
48089;BME280;33867;50.314;7.802;2023-06-19T17:38:38;99900.22;;;27.64;nan
48089;BME280;33867;50.314;7.802;2023-06-19T17:41:56;99912.53;;;27.46;nan
48089;BME280;33867;50.314;7.802;2023-06-19T17:45:16;99915.34;;;27.51;nan
48089;BME280;33867;50.314;7.802;2023-06-19T17:48:35;99912.03;;;27.86;nan
48089;BME280;33867;50.314;7.802;2023-06-19T17:51:54;99911.31;;;28.11;nan
48089;BME280;33867;50.314;7.802;2023-06-19T17:55:13;99907.22;;;28.24;nan
48089;BME280;33867;50.314;7.802;2023-06-19T17:58:32;99905.34;;;28.40;nan
48089;BME280;33867;50.314;7.802;2023-06-19T18:01:51;99908.16;;;28.45;nan
48089;BME280;33867;50.314;7.802;2023-06-19T18:05:10;99914.25;;;28.42;nan